Time,TemperatureF,DewpointF,PressureIn,WindDirection,WindDirectionDegrees,WindSpeedMPH,WindSpeedGustMPH,Humidity,HourlyPrecipIn,Conditions,Clouds,dailyrainin,SoftwareType,DateUTC
2013-02-17 00:02:00,15.4,13.7,29.74,SW,225,0.0,-999.0,93,-99.99,,,0.00,Acu-Link.com,2013-02-17 05:02:00,
2013-02-17 00:19:00,14.4,13.5,29.74,West,270,0.0,-999.0,96,-99.99,,,0.00,Acu-Link.com,2013-02-17 05:19:00,
2013-02-17 00:40:00,14.4,13.9,29.74,SE,135,0.0,-999.0,98,-99.99,,,0.00,Acu-Link.com,2013-02-17 05:40:00,
2013-02-17 01:02:00,14.0,9.3,29.73,ESE,112,0.0,-999.0,81,-99.99,,,0.00,Acu-Link.com,2013-02-17 06:02:00,
2013-02-17 01:19:00,14.2,13.7,29.74,ESE,112,3.7,-999.0,98,-99.99,,,0.00,Acu-Link.com,2013-02-17 06:19:00,
2013-02-17 01:34:00,14.2,13.7,29.74,ESE,112,2.2,-999.0,98,-99.99,,,0.00,Acu-Link.com,2013-02-17 06:34:00,
2013-02-17 01:50:00,14.0,13.5,29.73,ESE,112,3.2,-999.0,98,-99.99,,,0.00,Acu-Link.com,2013-02-17 06:50:00,
2013-02-17 02:08:00,14.0,3.1,29.74,SE,135,0.0,-999.0,61,-99.99,,,0.00,Acu-Link.com,2013-02-17 07:08:00,
2013-02-17 02:25:00,13.6,3.7,29.74,SE,135,0.0,-999.0,64,-99.99,,,0.00,Acu-Link.com,2013-02-17 07:25:00,
2013-02-17 02:44:00,13.8,5.5,29.75,NW,315,0.0,-999.0,69,-99.99,,,0.00,Acu-Link.com,2013-02-17 07:44:00,
2013-02-17 03:03:00,13.8,8.2,29.74,WNW,292,0.0,-999.0,78,-99.99,,,0.00,Acu-Link.com,2013-02-17 08:03:00,
2013-02-17 03:24:00,14.2,-1.4,29.75,West,270,0.0,-999.0,49,-99.99,,,0.00,Acu-Link.com,2013-02-17 08:24:00,
2013-02-17 03:42:00,14.4,6.4,29.75,WNW,292,0.0,-999.0,70,-99.99,,,0.00,Acu-Link.com,2013-02-17 08:42:00,
2013-02-17 03:57:00,14.5,-0.3,29.75,WNW,292,0.0,-999.0,51,-99.99,,,0.00,Acu-Link.com,2013-02-17 08:57:00,
2013-02-17 04:25:00,14.5,0.9,29.76,WSW,247,3.2,-999.0,54,-99.99,,,0.00,Acu-Link.com,2013-02-17 09:25:00,
2013-02-17 04:43:00,14.9,0.9,29.77,NW,315,0.0,-999.0,53,-99.99,,,0.00,Acu-Link.com,2013-02-17 09:43:00,
2013-02-17 05:02:00,15.4,0.5,29.77,West,270,3.2,-999.0,51,-99.99,,,0.00,Acu-Link.com,2013-02-17 10:02:00,
2013-02-17 05:23:00,15.6,-0.1,29.78,West,270,2.2,-999.0,49,-99.99,,,0.00,Acu-Link.com,2013-02-17 10:23:00,
2013-02-17 05:41:00,15.6,-1.5,29.78,SW,225,4.2,-999.0,46,-99.99,,,0.00,Acu-Link.com,2013-02-17 10:41:00,
2013-02-17 06:03:00,15.6,-1.0,29.79,WSW,247,2.7,-999.0,47,-99.99,,,0.00,Acu-Link.com,2013-02-17 11:03:00,
2013-02-17 06:19:00,15.8,-2.7,29.79,WNW,292,3.2,-999.0,43,-99.99,,,0.00,Acu-Link.com,2013-02-17 11:19:00,
2013-02-17 06:36:00,15.8,-4.7,29.79,West,270,0.0,-999.0,39,-99.99,,,0.00,Acu-Link.com,2013-02-17 11:36:00,
2013-02-17 06:57:00,15.6,-4.4,29.80,SW,225,3.7,-999.0,40,-99.99,,,0.00,Acu-Link.com,2013-02-17 11:57:00,
2013-02-17 07:17:00,15.6,-3.9,29.80,SW,225,1.7,-999.0,41,-99.99,,,0.00,Acu-Link.com,2013-02-17 12:17:00,
2013-02-17 07:41:00,15.6,1.1,29.81,SW,225,5.8,-999.0,52,-99.99,,,0.00,Acu-Link.com,2013-02-17 12:41:00,
2013-02-17 08:00:00,16.5,-3.0,29.81,WNW,292,4.2,-999.0,41,-99.99,,,0.00,Acu-Link.com,2013-02-17 13:00:00,
2013-02-17 08:15:00,17.1,-1.0,29.80,South,180,2.7,-999.0,44,-99.99,,,0.00,Acu-Link.com,2013-02-17 13:15:00,
2013-02-17 08:32:00,18.1,-56.3,29.80,SW,225,0.0,-999.0,2,-99.99,,,0.00,Acu-Link.com,2013-02-17 13:32:00,
2013-02-17 08:54:00,18.5,3.8,29.81,SSW,202,7.3,-999.0,52,-99.99,,,0.00,Acu-Link.com,2013-02-17 13:54:00,
2013-02-17 09:10:00,18.1,5.5,29.80,South,180,7.3,-999.0,57,-99.99,,,0.00,Acu-Link.com,2013-02-17 14:10:00,
2013-02-17 09:25:00,19.9,9.4,29.80,WSW,247,3.7,-999.0,63,-99.99,,,0.00,Acu-Link.com,2013-02-17 14:25:00,
2013-02-17 09:44:00,19.2,10.7,29.81,West,270,5.3,-999.0,69,-99.99,,,0.00,Acu-Link.com,2013-02-17 14:44:00,
2013-02-17 10:00:00,20.1,14.4,29.82,SW,225,3.2,-999.0,78,-99.99,,,0.00,Acu-Link.com,2013-02-17 15:00:00,
2013-02-17 10:16:00,20.5,17.8,29.82,SW,225,4.2,-999.0,89,-99.99,,,0.00,Acu-Link.com,2013-02-17 15:16:00,
2013-02-17 10:33:00,22.1,20.9,29.82,West,270,7.3,-999.0,95,-99.99,,,0.00,Acu-Link.com,2013-02-17 15:33:00,
2013-02-17 10:49:00,21.7,21.2,29.83,North,0,3.2,-999.0,98,-99.99,,,0.00,Acu-Link.com,2013-02-17 15:49:00,
2013-02-17 11:06:00,21.7,21.2,29.84,SW,225,3.7,-999.0,98,-99.99,,,0.00,Acu-Link.com,2013-02-17 16:06:00,
2013-02-17 11:27:00,21.4,20.9,29.83,SW,225,5.8,-999.0,98,-99.99,,,0.00,Acu-Link.com,2013-02-17 16:27:00,
2013-02-17 11:43:00,22.3,21.8,29.84,West,270,8.9,-999.0,98,-99.99,,,0.00,Acu-Link.com,2013-02-17 16:43:00,
2013-02-17 12:00:00,21.9,21.4,29.84,SW,225,7.8,-999.0,98,-99.99,,,0.00,Acu-Link.com,2013-02-17 17:00:00,
2013-02-17 12:16:00,19.2,18.7,29.84,SW,225,11.9,-999.0,98,-99.99,,,0.00,Acu-Link.com,2013-02-17 17:16:00,
2013-02-17 12:36:00,19.2,18.7,29.84,NW,315,9.4,-999.0,98,-99.99,,,0.00,Acu-Link.com,2013-02-17 17:36:00,
2013-02-17 12:59:00,19.4,18.9,29.84,WNW,292,6.8,-999.0,98,-99.99,,,0.00,Acu-Link.com,2013-02-17 17:59:00,
2013-02-17 13:26:00,20.7,20.2,29.84,WNW,292,4.7,-999.0,98,-99.99,,,0.00,Acu-Link.com,2013-02-17 18:26:00,
2013-02-17 13:43:00,19.2,17.3,29.85,West,270,5.8,-999.0,92,-99.99,,,0.00,Acu-Link.com,2013-02-17 18:43:00,
2013-02-17 13:58:00,23.7,21.5,29.85,South,180,9.4,-999.0,91,-99.99,,,0.00,Acu-Link.com,2013-02-17 18:58:00,
2013-02-17 14:14:00,21.6,21.1,29.85,South,180,11.9,-999.0,98,-99.99,,,0.00,Acu-Link.com,2013-02-17 19:14:00,
2013-02-17 14:31:00,21.0,20.5,29.86,SW,225,7.8,-999.0,98,-99.99,,,0.00,Acu-Link.com,2013-02-17 19:31:00,
2013-02-17 14:47:00,21.6,21.1,29.86,SW,225,14.0,-999.0,98,-99.99,,,0.00,Acu-Link.com,2013-02-17 19:47:00,
2013-02-17 15:03:00,21.6,21.1,29.87,NW,315,7.8,-999.0,98,-99.99,,,0.00,Acu-Link.com,2013-02-17 20:03:00,
2013-02-17 15:19:00,19.0,18.5,29.88,West,270,7.8,-999.0,98,-99.99,,,0.00,Acu-Link.com,2013-02-17 20:19:00,
2013-02-17 15:40:00,18.0,17.5,29.88,West,270,9.4,-999.0,98,-99.99,,,0.00,Acu-Link.com,2013-02-17 20:40:00,
2013-02-17 16:03:00,21.2,18.2,29.89,West,270,10.4,-999.0,88,-99.99,,,0.00,Acu-Link.com,2013-02-17 21:03:00,
2013-02-17 16:22:00,19.9,19.4,29.91,ESE,112,11.4,-999.0,98,-99.99,,,0.00,Acu-Link.com,2013-02-17 21:22:00,
2013-02-17 16:37:00,19.4,17.2,29.91,NW,315,14.5,-999.0,91,-99.99,,,0.00,Acu-Link.com,2013-02-17 21:37:00,
2013-02-17 16:55:00,18.1,17.6,29.92,SSW,202,11.9,-999.0,98,-99.99,,,0.00,Acu-Link.com,2013-02-17 21:55:00,
2013-02-17 17:16:00,18.0,17.5,29.93,WNW,292,4.2,-999.0,98,-99.99,,,0.00,Acu-Link.com,2013-02-17 22:16:00,
2013-02-17 17:32:00,17.1,16.6,29.94,WNW,292,9.9,-999.0,98,-99.99,,,0.00,Acu-Link.com,2013-02-17 22:32:00,
2013-02-17 17:49:00,17.1,16.6,29.96,WSW,247,9.4,-999.0,98,-99.99,,,0.00,Acu-Link.com,2013-02-17 22:49:00,
2013-02-17 18:27:00,16.9,16.4,29.97,WSW,247,9.9,-999.0,98,-99.99,,,0.00,Acu-Link.com,2013-02-17 23:27:00,
2013-02-17 18:47:00,16.0,15.5,29.99,WSW,247,5.3,-999.0,98,-99.99,,,0.00,Acu-Link.com,2013-02-17 23:47:00,
2013-02-17 19:03:00,16.0,15.5,29.98,WSW,247,7.8,-999.0,98,-99.99,,,0.00,Acu-Link.com,2013-02-18 00:03:00,
2013-02-17 20:04:00,16.0,15.5,30.00,WSW,247,6.3,-999.0,98,-99.99,,,0.00,Acu-Link.com,2013-02-18 01:04:00,
2013-02-17 20:25:00,15.8,13.6,29.99,West,270,7.8,-999.0,91,-99.99,,,0.00,Acu-Link.com,2013-02-18 01:25:00,
2013-02-17 20:49:00,15.8,13.6,30.01,WNW,292,7.3,-999.0,91,-99.99,,,0.00,Acu-Link.com,2013-02-18 01:49:00,
2013-02-17 21:06:00,15.1,13.0,30.02,WNW,292,2.7,-999.0,91,-99.99,,,0.00,Acu-Link.com,2013-02-18 02:06:00,
2013-02-17 21:22:00,14.4,13.9,30.03,West,270,5.3,-999.0,98,-99.99,,,0.00,Acu-Link.com,2013-02-18 02:22:00,
2013-02-17 21:44:00,14.0,13.5,30.03,West,270,6.3,-999.0,98,-99.99,,,0.00,Acu-Link.com,2013-02-18 02:44:00,
2013-02-17 22:11:00,14.2,13.7,30.05,South,180,4.2,-999.0,98,-99.99,,,0.00,Acu-Link.com,2013-02-18 03:11:00,
2013-02-17 22:54:00,14.4,13.9,30.07,South,180,6.3,-999.0,98,-99.99,,,0.00,Acu-Link.com,2013-02-18 03:54:00,
2013-02-17 23:31:00,14.2,13.7,30.06,WNW,292,6.3,-999.0,98,-99.99,,,0.00,Acu-Link.com,2013-02-18 04:31:00,
2013-02-17 23:50:00,14.2,13.7,30.06,SW,225,7.8,-999.0,98,-99.99,,,0.00,Acu-Link.com,2013-02-18 04:50:00,